createdAt,value
2023-05-05T00:00:33.351Z,61.7
2023-05-05T00:01:33.567Z,61.4
2023-05-05T00:02:33.526Z,61.5
2023-05-05T00:03:33.621Z,61.5
2023-05-05T00:04:33.385Z,61.4
2023-05-05T00:05:33.393Z,61.5
2023-05-05T00:06:33.410Z,61.4
2023-05-05T00:07:33.412Z,61.4
2023-05-05T00:08:33.420Z,61.5
2023-05-05T00:09:33.426Z,61.5
2023-05-05T00:10:33.448Z,61.7
2023-05-05T00:11:33.457Z,61.3
2023-05-05T00:12:33.567Z,61.6
2023-05-05T00:13:33.472Z,61.5
2023-05-05T00:14:33.501Z,61.5
2023-05-05T00:15:33.498Z,61.6
2023-05-05T00:16:33.640Z,61.3
2023-05-05T00:17:33.598Z,61.2
2023-05-05T00:18:33.529Z,61.1
2023-05-05T00:19:33.561Z,61.1
2023-05-05T00:20:33.564Z,61.4
2023-05-05T00:21:33.562Z,61.3
2023-05-05T00:22:33.580Z,61.3
2023-05-05T00:23:33.584Z,61.3
2023-05-05T00:24:33.620Z,61.3
2023-05-05T00:25:33.608Z,61.3
2023-05-05T00:26:33.619Z,61.4
2023-05-05T00:27:33.702Z,61.4
2023-05-05T00:28:33.653Z,61.4
2023-05-05T00:29:33.640Z,61.3
2023-05-05T00:30:33.698Z,61.6
2023-05-05T00:31:33.908Z,61.5
2023-05-05T00:32:33.766Z,61.5
2023-05-05T00:33:33.710Z,61.0
2023-05-05T00:51:34.237Z,61.0
2023-05-05T00:52:33.910Z,61.1
2023-05-05T00:53:33.911Z,61.2
2023-05-05T00:54:33.928Z,61.2
2023-05-05T00:55:33.945Z,61.5
2023-05-05T00:56:33.936Z,61.4
2023-05-05T00:57:34.267Z,61.5
2023-05-05T00:58:33.977Z,61.5
2023-05-05T00:59:33.992Z,61.8
2023-05-05T01:00:33.989Z,61.9
2023-05-05T01:01:34.125Z,61.8
2023-05-05T01:02:34.203Z,61.9
2023-05-05T01:03:34.317Z,62.0
2023-05-05T01:04:34.030Z,62.1
2023-05-05T01:05:34.038Z,62.2
2023-05-05T01:06:34.053Z,62.3
2023-05-05T01:07:34.040Z,62.3
2023-05-05T01:08:34.073Z,62.5
2023-05-05T01:09:34.069Z,62.7
2023-05-05T01:10:34.095Z,62.7
2023-05-05T01:11:34.111Z,62.8
2023-05-05T01:12:34.200Z,63.0
2023-05-05T01:13:34.116Z,63.0
2023-05-05T01:14:34.125Z,63.1
2023-05-05T01:15:34.142Z,63.4
2023-05-05T01:16:34.296Z,63.4
2023-05-05T01:17:34.212Z,63.5
2023-05-05T01:18:34.169Z,63.6
2023-05-05T01:19:34.185Z,63.5
2023-05-05T01:20:34.165Z,63.5
2023-05-05T01:21:34.201Z,63.7
2023-05-05T01:22:34.221Z,63.8
2023-05-05T01:23:34.233Z,63.9
2023-05-05T01:24:34.231Z,63.9
2023-05-05T01:25:34.312Z,64.0
2023-05-05T01:26:34.258Z,64.1
2023-05-05T01:27:34.615Z,64.1
2023-05-05T01:28:34.267Z,64.1
2023-05-05T01:29:34.288Z,64.2
2023-05-05T01:30:34.301Z,64.3
2023-05-05T01:31:34.375Z,64.4
2023-05-05T01:32:34.463Z,64.5
2023-05-05T01:33:34.333Z,64.6
2023-05-05T01:34:34.341Z,64.6
2023-05-05T01:35:34.350Z,64.6
2023-05-05T01:36:34.360Z,64.8
2023-05-05T01:37:34.364Z,64.8
2023-05-05T01:38:34.364Z,64.9
2023-05-05T01:39:34.385Z,65.0
2023-05-05T01:40:34.393Z,65.1
2023-05-05T01:41:34.411Z,65.1
2023-05-05T01:42:34.449Z,65.4
2023-05-05T01:43:34.412Z,65.3
2023-05-05T01:44:34.444Z,65.3
2023-05-05T01:45:34.674Z,65.3
2023-05-05T01:46:34.458Z,65.2
2023-05-05T01:47:34.556Z,65.3
2023-05-05T01:48:34.458Z,65.5
2023-05-05T01:49:34.500Z,65.6
2023-05-05T01:50:34.504Z,65.5
2023-05-05T01:51:34.504Z,65.6
2023-05-05T01:52:34.537Z,65.6
2023-05-05T01:53:34.543Z,65.6
2023-05-05T01:54:34.558Z,65.8
2023-05-05T01:55:34.591Z,65.7
2023-05-05T01:56:34.595Z,65.8
2023-05-05T01:57:34.584Z,66.0
2023-05-05T01:58:34.584Z,66.1
2023-05-05T01:59:34.605Z,66.1
2023-05-05T02:00:34.609Z,66.2
2023-05-05T02:01:34.794Z,66.2
2023-05-05T02:02:34.895Z,66.4
2023-05-05T02:03:34.774Z,66.4
2023-05-05T02:04:34.665Z,66.4
2023-05-05T02:05:34.787Z,66.4
2023-05-05T02:06:34.727Z,66.4
2023-05-05T02:07:34.704Z,66.4
2023-05-05T02:08:34.699Z,66.4
2023-05-05T02:09:34.722Z,66.5
2023-05-05T02:10:34.734Z,66.6
2023-05-05T02:11:34.758Z,66.6
2023-05-05T02:12:34.820Z,66.6
2023-05-05T02:13:34.886Z,66.7
2023-05-05T02:14:34.768Z,66.8
2023-05-05T02:15:34.879Z,66.8
2023-05-05T02:16:34.866Z,67.0
2023-05-05T02:17:35.016Z,67.0
2023-05-05T02:18:34.831Z,67.1
2023-05-05T02:19:34.872Z,67.2
2023-05-05T02:20:34.861Z,67.3
2023-05-05T02:21:34.963Z,67.2
2023-05-05T02:22:34.900Z,67.3
2023-05-05T02:23:34.910Z,67.4
2023-05-05T02:24:34.947Z,67.5
2023-05-05T02:25:34.924Z,67.6
2023-05-05T02:26:34.938Z,67.7
2023-05-05T02:27:34.938Z,67.9
2023-05-05T02:28:34.982Z,67.9
2023-05-05T02:29:34.981Z,68.0
2023-05-05T02:30:34.981Z,68.1
2023-05-05T02:31:35.080Z,68.2
2023-05-05T02:32:35.149Z,68.3
2023-05-05T02:33:35.035Z,68.3
2023-05-05T02:34:35.077Z,68.3
2023-05-05T02:35:35.038Z,68.4
2023-05-05T02:36:35.046Z,68.7
2023-05-05T02:37:35.068Z,68.6
2023-05-05T02:38:35.075Z,68.8
2023-05-05T02:39:35.380Z,69.1
2023-05-05T02:40:35.095Z,69.1
2023-05-05T02:41:35.125Z,69.3
2023-05-05T02:42:35.190Z,69.4
2023-05-05T02:43:35.155Z,69.5
2023-05-05T02:44:35.149Z,69.7
2023-05-05T02:45:35.227Z,69.7
2023-05-05T02:46:35.301Z,70.0
2023-05-05T02:47:35.327Z,70.1
2023-05-05T02:48:35.209Z,70.1
2023-05-05T02:49:35.227Z,70.3
2023-05-05T02:50:35.280Z,70.6
2023-05-05T02:51:35.259Z,70.5
2023-05-05T02:52:35.271Z,70.8
2023-05-05T02:53:35.250Z,70.8
2023-05-05T02:54:35.265Z,71.1
2023-05-05T02:55:35.320Z,71.4
2023-05-05T02:56:35.301Z,71.2
2023-05-05T02:57:35.321Z,71.5
2023-05-05T02:58:35.398Z,71.7
2023-05-05T02:59:35.350Z,71.9
2023-05-05T03:00:35.385Z,72.1
2023-05-05T03:01:35.474Z,72.3
2023-05-05T03:02:35.580Z,72.3
2023-05-05T03:03:35.624Z,72.5
2023-05-05T03:04:35.387Z,72.7
2023-05-05T03:05:35.387Z,72.7
2023-05-05T03:06:35.403Z,73.0
2023-05-05T03:07:35.406Z,73.0
2023-05-05T03:08:35.421Z,73.1
2023-05-05T03:09:35.441Z,73.3
2023-05-05T03:10:35.456Z,73.3
2023-05-05T03:11:35.479Z,73.6
2023-05-05T03:12:35.546Z,73.6
2023-05-05T03:13:35.476Z,73.7
2023-05-05T03:14:35.493Z,74.0
2023-05-05T03:15:35.495Z,73.9
2023-05-05T03:16:35.617Z,74.1
2023-05-05T03:17:35.608Z,74.1
2023-05-05T03:18:35.556Z,74.3
2023-05-05T03:19:35.568Z,74.2
2023-05-05T03:20:35.573Z,74.4
2023-05-05T03:21:35.594Z,74.4
2023-05-05T03:22:35.599Z,74.5
2023-05-05T03:23:35.608Z,74.6
2023-05-05T03:24:35.616Z,74.7
2023-05-05T03:25:35.642Z,75.0
2023-05-05T03:26:35.661Z,74.9
2023-05-05T03:27:35.678Z,75.1
2023-05-05T03:28:35.667Z,75.3
2023-05-05T03:29:35.693Z,75.4
2023-05-05T03:30:35.700Z,75.4
2023-05-05T03:31:35.828Z,75.5
2023-05-05T03:32:35.855Z,75.8
2023-05-05T03:33:35.740Z,76.0
2023-05-05T03:34:35.753Z,76.0
2023-05-05T03:35:35.752Z,76.0
2023-05-05T03:36:35.782Z,76.3
2023-05-05T03:37:35.786Z,76.5
2023-05-05T03:38:35.792Z,76.3
2023-05-05T03:39:35.799Z,76.4
2023-05-05T03:40:45.090Z,76.7
2023-05-05T03:41:35.818Z,76.8
2023-05-05T03:42:35.836Z,77.0
2023-05-05T03:43:35.868Z,77.1
2023-05-05T03:44:35.888Z,77.1
2023-05-05T03:45:35.933Z,77.3
2023-05-05T03:46:35.889Z,77.3
2023-05-05T03:47:36.122Z,77.4
2023-05-05T03:48:35.934Z,77.5
2023-05-05T03:49:35.921Z,77.6
2023-05-05T03:50:35.933Z,77.8
2023-05-05T03:51:35.961Z,78.0
2023-05-05T03:52:35.971Z,78.2
2023-05-05T03:53:35.970Z,78.1
2023-05-05T03:54:35.987Z,78.2
2023-05-05T03:55:35.987Z,78.4
2023-05-05T03:56:36.004Z,78.5
2023-05-05T03:57:36.029Z,78.5
2023-05-05T03:58:36.060Z,78.8
2023-05-05T03:59:36.069Z,78.9
2023-05-05T04:00:36.069Z,78.9
2023-05-05T04:01:36.113Z,79.0
2023-05-05T04:02:36.363Z,79.1
2023-05-05T04:03:36.304Z,79.2
2023-05-05T04:04:36.233Z,79.4
2023-05-05T04:05:36.113Z,79.3
2023-05-05T04:06:36.150Z,79.3
2023-05-05T04:07:36.130Z,79.4
2023-05-05T04:08:36.176Z,79.5
2023-05-05T04:09:36.187Z,79.5
2023-05-05T04:10:36.204Z,79.7
2023-05-05T04:11:36.203Z,79.7
2023-05-05T04:12:36.289Z,79.7
2023-05-05T04:13:36.239Z,79.9
2023-05-05T04:14:36.240Z,80.0
2023-05-05T04:15:36.371Z,79.9
2023-05-05T04:16:36.471Z,80.0
2023-05-05T04:17:36.403Z,80.2
2023-05-05T04:18:36.310Z,80.2
2023-05-05T04:19:36.292Z,80.1
2023-05-05T04:20:36.309Z,80.2
2023-05-05T04:21:36.420Z,80.2
2023-05-05T04:22:36.326Z,80.2
2023-05-05T04:23:36.325Z,80.1
2023-05-05T04:24:36.371Z,80.2
2023-05-05T04:25:36.375Z,80.2
2023-05-05T04:26:36.373Z,80.3
2023-05-05T04:27:36.403Z,80.2
2023-05-05T04:28:36.397Z,80.2
2023-05-05T04:29:36.429Z,80.0
2023-05-05T04:30:36.432Z,79.9
2023-05-05T04:31:36.549Z,79.8
2023-05-05T04:32:36.616Z,79.9
2023-05-05T04:33:36.443Z,80.0
2023-05-05T04:34:36.527Z,80.0
2023-05-05T04:35:36.487Z,79.7
2023-05-05T04:36:36.484Z,79.7
2023-05-05T04:37:36.503Z,79.6
2023-05-05T04:38:36.588Z,79.4
2023-05-05T04:39:36.543Z,79.6
2023-05-05T04:40:36.549Z,79.4
2023-05-05T04:41:36.559Z,79.1
2023-05-05T04:42:36.610Z,78.9
2023-05-05T04:43:36.588Z,78.9
2023-05-05T04:44:36.614Z,78.8
2023-05-05T04:45:36.615Z,78.7
2023-05-05T04:46:36.771Z,78.7
2023-05-05T04:47:36.787Z,78.6
2023-05-05T04:48:36.661Z,78.4
2023-05-05T04:49:36.642Z,78.6
2023-05-05T04:50:36.718Z,78.5
2023-05-05T04:51:36.671Z,78.4
2023-05-05T04:52:36.705Z,78.4
2023-05-05T04:53:36.748Z,78.3
2023-05-05T04:54:36.697Z,78.2
2023-05-05T04:55:36.735Z,78.1
2023-05-05T04:56:36.736Z,78.2
2023-05-05T04:57:36.755Z,78.3
2023-05-05T04:58:36.757Z,78.2
2023-05-05T04:59:36.777Z,77.9
2023-05-05T05:00:36.818Z,77.9
2023-05-05T05:01:38.976Z,77.7
2023-05-05T05:02:36.996Z,77.7
2023-05-05T05:03:37.160Z,77.6
2023-05-05T05:04:36.843Z,77.5
2023-05-05T05:05:36.835Z,77.6
2023-05-05T05:06:36.841Z,77.7
2023-05-05T05:07:36.885Z,77.7
2023-05-05T05:08:36.882Z,77.6
2023-05-05T05:09:36.896Z,77.5
2023-05-05T05:10:36.921Z,77.3
2023-05-05T05:11:36.912Z,77.0
2023-05-05T05:12:37.063Z,76.9
2023-05-05T05:13:36.980Z,76.6
2023-05-05T05:14:36.980Z,76.4
2023-05-05T05:15:36.979Z,76.3
2023-05-05T05:16:37.101Z,75.9
2023-05-05T05:17:37.128Z,75.8
2023-05-05T05:18:37.026Z,75.7
2023-05-05T05:19:37.010Z,75.5
2023-05-05T05:20:37.027Z,75.3
2023-05-05T05:21:37.054Z,75.0
2023-05-05T05:22:37.072Z,74.8
2023-05-05T05:23:37.130Z,74.5
2023-05-05T05:24:37.094Z,74.5
2023-05-05T05:25:37.103Z,74.4
2023-05-05T05:26:37.115Z,74.5
2023-05-05T05:27:37.119Z,74.4
2023-05-05T05:28:37.174Z,74.1
2023-05-05T05:29:37.154Z,74.1
2023-05-05T05:30:37.189Z,73.9
2023-05-05T05:31:37.396Z,73.7
2023-05-05T05:32:37.301Z,73.7
2023-05-05T05:33:37.204Z,73.5
2023-05-05T05:34:37.213Z,73.6
2023-05-05T05:35:37.262Z,73.5
2023-05-05T05:36:37.262Z,73.5
2023-05-05T05:37:37.238Z,73.5
2023-05-05T05:38:37.278Z,73.3
2023-05-05T05:39:37.291Z,73.4
2023-05-05T05:40:37.301Z,73.6
2023-05-05T05:41:37.305Z,73.8
2023-05-05T05:42:37.334Z,74.0
2023-05-05T05:43:37.321Z,73.7
2023-05-05T05:44:37.346Z,74.0
2023-05-05T05:45:37.598Z,74.2
2023-05-05T05:46:37.475Z,74.3
2023-05-05T05:47:37.496Z,74.3
2023-05-05T05:48:37.410Z,74.3
2023-05-05T05:49:37.406Z,74.3
2023-05-05T05:50:37.444Z,74.4
2023-05-05T05:51:37.445Z,74.3
2023-05-05T05:52:37.465Z,74.3
2023-05-05T05:53:37.508Z,74.4
2023-05-05T05:54:37.472Z,74.3
2023-05-05T05:55:37.472Z,74.0
2023-05-05T05:56:37.532Z,74.1
2023-05-05T05:57:37.500Z,74.0
2023-05-05T05:58:37.523Z,74.1
2023-05-05T05:59:37.524Z,74.1
2023-05-05T06:00:37.532Z,74.3
2023-05-05T06:01:37.548Z,74.3
2023-05-05T06:02:37.998Z,74.5
2023-05-05T06:03:37.841Z,74.5
2023-05-05T06:04:37.797Z,74.5
2023-05-05T06:05:37.617Z,74.6
2023-05-05T06:06:37.632Z,74.4
2023-05-05T06:07:37.635Z,74.4
2023-05-05T06:08:37.674Z,74.4
2023-05-05T06:09:37.676Z,74.4
2023-05-05T06:10:37.707Z,74.3
2023-05-05T06:11:37.731Z,74.3
2023-05-05T06:12:37.787Z,74.0
2023-05-05T06:13:37.697Z,73.9
2023-05-05T06:14:37.741Z,73.6
2023-05-05T06:15:37.846Z,73.4
2023-05-05T06:16:37.769Z,73.4
2023-05-05T06:17:38.023Z,73.4
2023-05-05T06:18:37.796Z,73.4
2023-05-05T06:19:37.825Z,73.3
2023-05-05T06:20:37.844Z,73.3
2023-05-05T06:21:37.843Z,73.4
2023-05-05T06:22:37.902Z,73.2
2023-05-05T06:23:37.873Z,73.2
2023-05-05T06:24:37.897Z,72.9
2023-05-05T06:25:37.904Z,72.8
2023-05-05T06:26:37.896Z,72.7
2023-05-05T06:27:37.964Z,72.4
2023-05-05T06:28:38.016Z,72.4
2023-05-05T06:29:37.958Z,72.0
2023-05-05T06:30:37.984Z,72.2
2023-05-05T06:31:38.183Z,72.1
2023-05-05T06:32:38.180Z,72.0
2023-05-05T06:33:38.050Z,71.7
2023-05-05T06:34:38.037Z,71.8
2023-05-05T06:35:38.030Z,71.6
2023-05-05T06:36:38.258Z,71.3
2023-05-05T06:37:38.115Z,71.4
2023-05-05T06:38:38.122Z,71.6
2023-05-05T06:39:38.108Z,71.5
2023-05-05T06:40:38.126Z,71.4
2023-05-05T06:41:38.145Z,71.3
2023-05-05T06:42:38.147Z,71.5
2023-05-05T06:43:38.196Z,71.6
2023-05-05T06:44:38.170Z,71.6
2023-05-05T06:45:38.201Z,71.3
2023-05-05T06:46:38.345Z,70.9
2023-05-05T06:47:38.720Z,71.1
2023-05-05T06:48:38.241Z,70.8
2023-05-05T06:49:38.249Z,70.7
2023-05-05T06:50:38.264Z,70.7
2023-05-05T06:51:42.812Z,70.6
2023-05-05T06:52:38.309Z,70.6
2023-05-05T06:53:38.477Z,70.5
2023-05-05T06:54:38.371Z,70.6
2023-05-05T06:55:38.326Z,70.7
2023-05-05T06:56:38.306Z,70.5
2023-05-05T06:57:38.335Z,70.5
2023-05-05T06:58:38.374Z,70.2
2023-05-05T06:59:38.369Z,70.0
2023-05-05T07:00:38.438Z,69.9
2023-05-05T07:01:38.406Z,69.8
2023-05-05T07:02:38.711Z,69.3
2023-05-05T07:03:38.667Z,69.1
2023-05-05T07:04:38.443Z,69.0
2023-05-05T07:05:38.446Z,68.9
2023-05-05T07:06:38.456Z,68.9
2023-05-05T07:07:38.490Z,68.8
2023-05-05T07:08:38.543Z,68.7
2023-05-05T07:09:38.568Z,68.8
2023-05-05T07:10:38.516Z,68.7
2023-05-05T07:11:38.633Z,68.5
2023-05-05T07:12:38.790Z,68.4
2023-05-05T07:13:38.578Z,68.4
2023-05-05T07:14:38.578Z,67.8
2023-05-05T07:15:38.610Z,67.6
2023-05-05T07:16:38.650Z,67.4
2023-05-05T07:17:38.770Z,67.2
2023-05-05T07:18:38.670Z,67.2
2023-05-05T07:19:38.657Z,67.2
2023-05-05T07:20:38.683Z,66.9
2023-05-05T07:21:38.707Z,66.5
2023-05-05T07:22:38.679Z,66.3
2023-05-05T07:23:38.700Z,66.0
2023-05-05T07:24:38.725Z,65.2
2023-05-05T07:25:38.726Z,64.7
2023-05-05T07:26:38.711Z,64.2
2023-05-05T07:27:38.711Z,64.1
2023-05-05T07:28:38.744Z,63.8
2023-05-05T07:29:38.802Z,63.3
2023-05-05T07:30:38.808Z,63.0
2023-05-05T07:31:38.941Z,62.7
2023-05-05T07:32:38.883Z,62.2
2023-05-05T07:33:38.800Z,62.0
2023-05-05T07:34:38.829Z,61.8
2023-05-05T07:35:39.115Z,61.4
2023-05-05T07:36:38.865Z,61.0
2023-05-05T07:37:38.935Z,60.9
2023-05-05T07:38:38.907Z,60.6
2023-05-05T07:39:38.985Z,60.2
2023-05-05T07:40:38.911Z,59.7
2023-05-05T07:41:38.933Z,59.6
2023-05-05T07:42:38.951Z,59.2
2023-05-05T07:43:41.250Z,58.3
2023-05-05T07:44:38.998Z,58.3
2023-05-05T07:45:39.010Z,58.5
2023-05-05T07:46:39.004Z,58.5
2023-05-05T07:47:39.303Z,58.8
2023-05-05T07:48:39.062Z,58.7
2023-05-05T07:49:39.051Z,58.8
2023-05-05T07:50:39.073Z,58.6
2023-05-05T07:51:39.077Z,58.5
2023-05-05T07:53:06.100Z,58.2
2023-05-05T07:53:39.127Z,57.9
2023-05-05T07:54:39.113Z,58.2
2023-05-05T07:55:39.132Z,58.0
2023-05-05T07:56:39.147Z,58.0
2023-05-05T07:57:39.157Z,57.8
2023-05-05T07:58:39.158Z,57.4
2023-05-05T07:59:39.225Z,57.1
2023-05-05T08:00:39.200Z,56.9
2023-05-05T08:01:39.276Z,56.7
2023-05-05T08:02:39.460Z,56.8
2023-05-05T08:03:39.790Z,56.5
2023-05-05T08:04:39.393Z,56.4
2023-05-05T08:05:39.274Z,56.1
2023-05-05T08:06:39.259Z,55.8
2023-05-05T08:07:39.279Z,55.9
2023-05-05T08:08:39.282Z,55.6
2023-05-05T08:09:39.730Z,55.4
2023-05-05T08:10:39.313Z,55.3
2023-05-05T08:11:39.327Z,55.1
2023-05-05T08:12:39.678Z,55.2
2023-05-05T08:13:39.409Z,55.6
2023-05-05T08:14:39.362Z,55.8
2023-05-05T08:15:39.491Z,55.7
2023-05-05T08:16:39.406Z,55.0
2023-05-05T08:17:39.497Z,55.0
2023-05-05T08:18:39.409Z,55.4
2023-05-05T08:19:39.451Z,55.0
2023-05-05T08:20:39.447Z,55.0
2023-05-05T08:21:39.442Z,55.0
2023-05-05T08:22:39.466Z,54.8
2023-05-05T08:23:39.477Z,54.7
2023-05-05T08:24:39.467Z,54.8
2023-05-05T08:25:39.480Z,54.4
2023-05-05T08:26:39.469Z,54.2
2023-05-05T08:27:39.485Z,54.1
2023-05-05T08:28:39.474Z,54.0
2023-05-05T08:29:39.510Z,54.1
2023-05-05T08:30:39.625Z,54.1
2023-05-05T08:31:39.739Z,54.2
2023-05-05T08:32:39.692Z,54.1
2023-05-05T08:33:39.527Z,54.2
2023-05-05T08:34:39.520Z,54.1
2023-05-05T08:35:39.578Z,53.9
2023-05-05T08:36:39.575Z,53.9
2023-05-05T08:37:39.560Z,54.0
2023-05-05T08:38:39.552Z,53.8
2023-05-05T08:39:39.586Z,53.8
2023-05-05T08:40:39.568Z,53.9
2023-05-05T08:41:39.611Z,53.8
2023-05-05T08:42:39.916Z,53.7
2023-05-05T08:43:39.867Z,53.8
2023-05-05T08:44:39.598Z,54.2
2023-05-05T08:45:39.603Z,53.9
2023-05-05T08:46:39.768Z,53.9
2023-05-05T08:47:39.931Z,53.8
2023-05-05T08:48:39.620Z,53.7
2023-05-05T08:49:39.626Z,53.4
2023-05-05T08:50:39.655Z,53.6
2023-05-05T08:51:39.656Z,53.2
2023-05-05T08:52:39.828Z,53.5
2023-05-05T08:53:39.644Z,53.7
2023-05-05T08:54:39.657Z,53.9
2023-05-05T08:55:39.663Z,53.9
2023-05-05T08:56:39.674Z,53.6
2023-05-05T08:57:39.669Z,53.8
2023-05-05T08:58:39.677Z,54.3
2023-05-05T08:59:39.712Z,54.2
2023-05-05T09:00:39.739Z,53.8
2023-05-05T09:01:39.715Z,54.6
2023-05-05T09:02:39.999Z,54.6
2023-05-05T09:03:39.824Z,54.7
2023-05-05T09:04:39.740Z,55.0
2023-05-05T09:05:39.755Z,54.8
2023-05-05T09:06:39.759Z,54.8
2023-05-05T09:07:39.736Z,54.7
2023-05-05T09:08:39.828Z,54.8
2023-05-05T09:09:39.780Z,55.0
2023-05-05T09:10:39.790Z,54.8
2023-05-05T09:11:39.826Z,54.7
2023-05-05T09:12:39.886Z,54.3
2023-05-05T09:13:39.798Z,53.9
2023-05-05T09:14:39.823Z,53.5
2023-05-05T09:15:39.811Z,53.4
2023-05-05T09:16:39.983Z,53.5
2023-05-05T09:17:39.930Z,53.5
2023-05-05T09:18:39.840Z,53.6
2023-05-05T09:19:39.846Z,53.5
2023-05-05T09:20:39.847Z,52.8
2023-05-05T09:21:39.871Z,52.5
2023-05-05T09:22:39.901Z,52.1
2023-05-05T09:23:39.889Z,51.7
2023-05-05T09:24:39.892Z,51.4
2023-05-05T09:25:39.906Z,51.2
2023-05-05T09:26:39.910Z,51.4
2023-05-05T09:27:39.912Z,51.2
2023-05-05T09:28:39.920Z,50.8
2023-05-05T09:29:39.953Z,51.0
2023-05-05T09:30:40.054Z,50.5
2023-05-05T09:31:39.949Z,50.3
2023-05-05T09:32:40.158Z,50.2
2023-05-05T09:33:39.950Z,49.8
2023-05-05T09:34:39.983Z,49.7
2023-05-05T09:35:39.975Z,49.5
2023-05-05T09:36:40.050Z,50.1
2023-05-05T09:37:39.997Z,49.3
2023-05-05T09:38:40.008Z,48.6
2023-05-05T09:39:40.062Z,48.3
2023-05-05T09:40:40.013Z,48.4
2023-05-05T09:41:40.064Z,48.1
2023-05-05T09:42:40.038Z,47.8
2023-05-05T09:43:40.031Z,47.8
2023-05-05T09:44:40.199Z,48.4
2023-05-05T09:45:40.049Z,48.7
2023-05-05T09:46:40.262Z,48.6
2023-05-05T09:47:40.172Z,49.1
2023-05-05T09:48:40.072Z,48.6
2023-05-05T09:49:40.077Z,48.5
2023-05-05T09:50:40.108Z,48.7
2023-05-05T09:51:40.096Z,49.1
2023-05-05T09:52:40.089Z,49.2
2023-05-05T09:53:40.110Z,48.9
2023-05-05T09:54:40.117Z,48.8
2023-05-05T09:55:40.174Z,48.8
2023-05-05T09:56:40.137Z,48.7
2023-05-05T09:57:40.142Z,48.8
2023-05-05T09:58:40.485Z,48.8
2023-05-05T09:59:40.154Z,49.0
2023-05-05T10:00:40.153Z,49.0
2023-05-05T10:01:40.299Z,48.5
2023-05-05T10:02:40.266Z,48.4
2023-05-05T10:03:40.179Z,48.6
2023-05-05T10:04:40.301Z,48.4
2023-05-05T10:05:40.246Z,48.9
2023-05-05T10:06:40.220Z,48.4
2023-05-05T10:07:40.223Z,48.7
2023-05-05T10:08:40.209Z,48.5
2023-05-05T10:09:40.252Z,48.2
2023-05-05T10:10:40.208Z,48.4
2023-05-05T10:11:40.315Z,48.6
2023-05-05T10:12:40.533Z,48.7
2023-05-05T10:13:40.242Z,48.4
2023-05-05T10:14:40.251Z,48.6
2023-05-05T10:15:40.259Z,48.0
2023-05-05T10:16:40.463Z,48.3
2023-05-05T10:18:02.742Z,48.5
2023-05-05T10:18:40.499Z,48.2
2023-05-05T10:19:40.351Z,47.7
2023-05-05T10:20:40.350Z,47.1
2023-05-05T10:21:42.456Z,47.1
2023-05-05T10:22:40.346Z,46.9
2023-05-05T10:23:40.317Z,47.0
2023-05-05T10:24:40.383Z,46.5
2023-05-05T10:25:40.336Z,46.7
2023-05-05T10:26:40.342Z,45.9
2023-05-05T10:27:40.351Z,46.2
2023-05-05T10:28:40.348Z,46.9
2023-05-05T10:29:40.424Z,45.1
2023-05-05T10:30:40.381Z,44.5
2023-05-05T10:31:40.414Z,44.6
2023-05-05T10:33:13.502Z,44.6
2023-05-05T10:33:40.668Z,44.7
2023-05-05T10:34:40.481Z,44.5
2023-05-05T10:35:40.405Z,44.4
2023-05-05T10:36:40.420Z,43.6
2023-05-05T10:37:40.466Z,43.4
2023-05-05T10:38:40.474Z,43.9
2023-05-05T10:39:40.490Z,43.6
2023-05-05T10:40:40.493Z,43.5
2023-05-05T10:41:40.483Z,43.7
2023-05-05T10:42:40.638Z,43.4
2023-05-05T10:43:40.499Z,43.4
2023-05-05T10:44:40.497Z,43.0
2023-05-05T10:45:40.835Z,42.8
2023-05-05T10:46:40.971Z,42.6
2023-05-05T10:47:40.623Z,42.4
2023-05-05T10:48:40.661Z,42.6
2023-05-05T10:49:40.527Z,42.0
2023-05-05T10:50:40.545Z,41.8
2023-05-05T10:51:41.546Z,42.1
2023-05-05T10:52:40.573Z,42.2
2023-05-05T10:53:40.556Z,42.2
2023-05-05T10:54:40.579Z,42.3
2023-05-05T10:55:40.572Z,42.2
2023-05-05T10:56:40.584Z,42.2
2023-05-05T10:57:40.622Z,42.1
2023-05-05T10:59:00.741Z,41.6
2023-05-05T10:59:40.691Z,41.6
2023-05-05T11:00:40.611Z,42.1
2023-05-05T11:01:40.612Z,42.0
2023-05-05T11:02:40.750Z,42.1
2023-05-05T11:03:40.929Z,42.1
2023-05-05T11:04:40.629Z,42.5
2023-05-05T11:05:40.639Z,42.3
2023-05-05T11:06:40.648Z,42.4
2023-05-05T11:07:40.659Z,42.3
2023-05-05T11:08:40.673Z,42.0
2023-05-05T11:09:40.675Z,43.0
2023-05-05T11:10:40.681Z,42.5
2023-05-05T11:11:40.731Z,42.4
2023-05-05T11:12:40.729Z,42.5
2023-05-05T11:13:40.706Z,42.8
2023-05-05T11:14:40.787Z,43.1
2023-05-05T11:15:40.715Z,43.5
2023-05-05T11:16:40.961Z,43.0
2023-05-05T11:17:40.794Z,42.8
2023-05-05T11:18:40.721Z,43.1
2023-05-05T11:19:40.724Z,42.4
2023-05-05T11:20:40.760Z,42.8
2023-05-05T11:21:40.743Z,42.9
2023-05-05T11:22:40.750Z,43.4
2023-05-05T11:23:40.766Z,43.6
2023-05-05T11:24:40.760Z,43.6
2023-05-05T11:25:41.410Z,43.5
2023-05-05T11:26:40.776Z,43.7
2023-05-05T11:27:40.772Z,43.1
2023-05-05T11:28:40.812Z,43.4
2023-05-05T11:29:40.841Z,42.9
2023-05-05T11:30:40.887Z,43.0
2023-05-05T11:31:41.409Z,42.5
2023-05-05T11:32:40.960Z,43.4
2023-05-05T11:33:40.852Z,42.2
2023-05-05T11:34:40.859Z,42.2
2023-05-05T11:35:40.847Z,41.7
2023-05-05T11:36:40.909Z,41.9
2023-05-05T11:37:40.859Z,41.6
2023-05-05T11:38:40.870Z,41.7
2023-05-05T11:39:40.880Z,41.1
2023-05-05T11:40:40.886Z,40.9
2023-05-05T11:41:40.902Z,40.9
2023-05-05T11:42:40.943Z,41.7
2023-05-05T11:43:40.918Z,40.9
2023-05-05T11:44:40.906Z,40.9
2023-05-05T11:45:40.929Z,40.6
2023-05-05T11:46:41.469Z,40.9
2023-05-05T11:47:41.049Z,41.3
2023-05-05T11:48:40.940Z,41.2
2023-05-05T11:49:40.948Z,41.2
2023-05-05T11:50:41.023Z,41.3
2023-05-05T11:51:40.979Z,41.2
2023-05-05T11:52:40.968Z,41.1
2023-05-05T11:53:40.966Z,41.1
2023-05-05T11:54:41.042Z,40.9
2023-05-05T11:55:40.991Z,40.7
2023-05-05T11:56:40.998Z,40.6
2023-05-05T11:57:40.994Z,41.3
2023-05-05T11:58:41.004Z,41.2
2023-05-05T11:59:40.999Z,40.6
2023-05-05T12:00:41.021Z,40.7
2023-05-05T12:01:41.094Z,40.3
2023-05-05T12:02:41.502Z,40.4
2023-05-05T12:03:41.696Z,40.5
2023-05-05T12:04:41.181Z,40.6
2023-05-05T12:05:41.057Z,40.8
2023-05-05T12:06:41.068Z,40.7
2023-05-05T12:07:41.115Z,40.6
2023-05-05T12:08:41.145Z,40.5
2023-05-05T12:09:41.082Z,40.6
2023-05-05T12:10:41.090Z,40.9
2023-05-05T12:11:41.088Z,41.2
2023-05-05T12:12:41.389Z,41.3
2023-05-05T12:13:41.104Z,41.3
2023-05-05T12:14:41.133Z,41.3
2023-05-05T12:15:41.118Z,41.2
2023-05-05T12:16:41.556Z,41.4
2023-05-05T12:17:41.284Z,41.1
2023-05-05T12:18:41.165Z,41.1
2023-05-05T12:19:41.151Z,41.6
2023-05-05T12:20:41.159Z,41.9
2023-05-05T12:21:41.159Z,42.2
2023-05-05T12:22:41.283Z,42.4
2023-05-05T12:23:41.175Z,42.5
2023-05-05T12:24:41.182Z,42.6
2023-05-05T12:25:41.170Z,42.3
2023-05-05T12:26:41.204Z,42.1
2023-05-05T12:27:41.209Z,42.6
2023-05-05T12:28:41.195Z,43.1
2023-05-05T12:29:41.232Z,43.7
2023-05-05T12:30:41.304Z,43.9
2023-05-05T12:31:41.505Z,43.9
2023-05-05T12:32:41.597Z,43.9
2023-05-05T12:33:41.265Z,44.1
2023-05-05T12:34:41.250Z,44.2
2023-05-05T12:35:41.253Z,44.2
2023-05-05T12:36:41.273Z,44.0
2023-05-05T12:37:41.268Z,44.6
2023-05-05T12:38:41.271Z,44.3
2023-05-05T12:39:41.296Z,44.2
2023-05-05T12:40:41.303Z,44.5
2023-05-05T12:41:41.419Z,44.7
2023-05-05T12:42:41.347Z,44.9
2023-05-05T12:43:41.323Z,45.1
2023-05-05T12:44:41.339Z,45.2
2023-05-05T12:45:41.461Z,45.2
2023-05-05T12:46:41.349Z,45.3
2023-05-05T12:47:41.481Z,45.3
2023-05-05T12:48:41.370Z,45.5
2023-05-05T12:49:41.388Z,45.6
2023-05-05T12:50:41.387Z,46.1
2023-05-05T12:51:41.367Z,46.0
2023-05-05T12:52:41.414Z,46.0
2023-05-05T12:53:41.415Z,46.3
2023-05-05T12:54:41.409Z,46.7
2023-05-05T12:55:41.417Z,46.1
2023-05-05T12:56:41.452Z,46.0
2023-05-05T12:57:41.423Z,45.9
2023-05-05T12:58:41.429Z,46.2
2023-05-05T12:59:41.455Z,46.2
2023-05-05T13:00:41.422Z,46.1
2023-05-05T13:01:41.578Z,46.1
2023-05-05T13:02:41.732Z,46.3
2023-05-05T13:03:41.612Z,46.4
2023-05-05T13:04:41.480Z,46.7
2023-05-05T13:05:41.519Z,46.5
2023-05-05T13:06:41.534Z,46.4
2023-05-05T13:07:41.487Z,46.8
2023-05-05T13:08:41.517Z,46.6
2023-05-05T13:09:41.517Z,46.0
2023-05-05T13:10:41.572Z,46.3
2023-05-05T13:11:41.499Z,45.8
2023-05-05T13:12:41.580Z,45.5
2023-05-05T13:13:41.535Z,45.7
2023-05-05T13:14:41.579Z,45.4
2023-05-05T13:15:41.692Z,45.6
2023-05-05T13:16:41.570Z,45.4
2023-05-05T13:17:41.736Z,45.6
2023-05-05T13:18:41.568Z,45.7
2023-05-05T13:19:41.795Z,45.5
2023-05-05T13:20:41.591Z,45.5
2023-05-05T13:21:41.624Z,45.3
2023-05-05T13:22:41.628Z,45.2
2023-05-05T13:23:41.616Z,46.4
2023-05-05T13:24:53.126Z,44.5
2023-05-05T13:25:41.631Z,44.5
2023-05-05T13:26:41.691Z,44.1
2023-05-05T13:27:41.654Z,43.6
2023-05-05T13:28:41.648Z,43.5
2023-05-05T13:29:41.898Z,44.6
2023-05-05T13:30:41.697Z,43.5
2023-05-05T13:31:42.002Z,43.4
2023-05-05T13:32:41.868Z,43.8
2023-05-05T13:33:41.698Z,44.1
2023-05-05T13:34:41.683Z,44.5
2023-05-05T13:35:41.714Z,44.5